Waskish, MN

5:13 AM CST on December 19, 2014 (GMT -0600)
Bemidji-Beltrami County | Change Station
CLOSE
Current Station
Airport
Location: Bemidji,
Elevation: 1378 ft
Nearby Weather Stations

Elev 1378 ft 47.51 °N, 94.93 °W | Updated 22 minutes ago

Snow
Snow
18 °F
Feels Like 12 °F
N
5
Wind Variable Wind from SSE

Today
High -- | Low -- °F
--% Chance of Precip.
Yesterday
High -- | Low -- °F
Precip. -- in
8:04 AM 4:25 PM
Waning Crescent, 8% visible
Pressure 30.14 in
Visibility 5.0 miles
Clouds Scattered Clouds 2000 ft
Mostly Cloudy 2700 ft
Mostly Cloudy 3500 ft
Windchill 12 °F
Dew Point 16 °F
Humidity 89%
Rainfall 0.00 in
Snow Depth Not available.
UV 0 out of 12
Pollen .10 out of 12
Air Quality Not available.
Flu Activity Not available.
METAR KBJI 191051Z AUTO 15004KT 5SM -SN SCT020 BKN027 BKN035 M07/M09 A3014 RMK AO2 T10751090

More Conditions Fewer Conditions

Pressure 30.14 in
Visibility 5.0 miles
Clouds Scattered Clouds 2000 ft
Mostly Cloudy 2700 ft
Mostly Cloudy 3500 ft
Windchill 12 °F
Dew Point 16 °F
Humidity 89%
Rainfall 0.00 in
Snow Depth Not available.
UV 0 out of 12
Pollen .10 out of 12
Air Quality Not available.
Flu Activity Not available.
METAR KBJI 191051Z AUTO 15004KT 5SM -SN SCT020 BKN027 BKN035 M07/M09 A3014 RMK AO2 T10751090

More Conditions Fewer Conditions

10-Day Weather Forecast

Almanac

Astronomy

Dec. 19, 2014 Rise Set
Actual Time
Civil Twilight
Nautical Twilight
Astronomical Twilight
Moon
Length of Visible Light
Length of Day
Tomorrow will be .
, % of the Moon is Illuminated

Today's Extremes

State Highs State Lows

Community

WunderPhotos

Upload Photos

1,778,965 photos uploaded!

WunderBlogs® & News

Nearby

Air Quality

  Air Quality AQ Index Pollutant
Not available.

Snow Depth

Station Depth Elevation

Earthquake Activity

City Distance Mag. Time & Date
Minimum magnitude displayed is 2.5.

Coastal Water Temperatures

Place Temperature

Nearby Weather Stations